Time;durP1;ratioP1;P1;durP2;ratioP2;P2;SDS_P1;SDS_P2;PMS_P1;PMS_P2;Temp;Humidity;BMP_temperature;BMP_pressure;BME280_temperature;BME280_humidity;BME280_pressure;Samples;Min_cycle;Max_cycle;Signal;HPM_P1;HPM_P2
2022/03/09 00:01:35;;;;;;;55.03;19.83;;;;;;;-0.58;100.00;99358.41;5097318;28;20494;-66
2022/03/09 00:04:02;;;;;;;50.23;20.93;;;;;;;-0.59;100.00;99361.81;5097235;28;20237;-57
2022/03/09 00:06:29;;;;;;;49.77;19.67;;;;;;;-0.62;100.00;99359.34;5094478;28;21042;-58
2022/03/09 00:08:55;;;;;;;46.40;19.03;;;;;;;-0.61;100.00;99361.00;5096045;28;20265;-57
2022/03/09 00:11:24;;;;;;;52.03;20.10;;;;;;;-0.74;100.00;99357.94;5094754;28;20506;-66
2022/03/09 00:13:51;;;;;;;52.70;20.67;;;;;;;-0.76;100.00;99363.00;5096037;28;20451;-57
2022/03/09 00:16:18;;;;;;;48.77;19.93;;;;;;;-0.85;100.00;99363.19;5096769;28;20503;-58
2022/03/09 00:18:45;;;;;;;47.93;20.63;;;;;;;-0.85;100.00;99368.22;5094758;28;20259;-57
2022/03/09 00:21:11;;;;;;;46.50;19.50;;;;;;;-0.80;100.00;99356.41;5096392;28;20229;-58
2022/03/09 00:23:39;;;;;;;54.33;20.67;;;;;;;-0.86;100.00;99351.50;5093325;28;20210;-66
2022/03/09 00:26:06;;;;;;;48.10;19.93;;;;;;;-0.93;100.00;99360.03;5094433;28;20241;-58
2022/03/09 00:28:34;;;;;;;49.90;20.33;;;;;;;-0.97;100.00;99363.47;5095041;28;20198;-66
2022/03/09 00:31:01;;;;;;;53.37;21.23;;;;;;;-0.99;100.00;99360.13;5097152;28;20255;-66
2022/03/09 00:33:28;;;;;;;55.13;23.17;;;;;;;-1.04;100.00;99351.91;5097855;28;20444;-57
2022/03/09 00:35:56;;;;;;;51.73;21.20;;;;;;;-1.04;100.00;99351.91;5098102;28;20491;-66
2022/03/09 00:38:23;;;;;;;60.27;22.53;;;;;;;-0.95;100.00;99337.47;5098596;28;20448;-58
2022/03/09 00:40:51;;;;;;;56.93;21.87;;;;;;;-0.91;100.00;99338.22;5095130;28;20471;-58
2022/03/09 00:43:19;;;;;;;52.40;21.40;;;;;;;-0.88;100.00;99339.84;5098988;28;20513;-66
2022/03/09 00:45:48;;;;;;;49.90;21.00;;;;;;;-0.80;100.00;99336.31;5098879;28;21052;-57
2022/03/09 00:48:15;;;;;;;66.43;20.87;;;;;;;-0.85;100.00;99340.59;5096382;28;20440;-58
2022/03/09 00:50:42;;;;;;;96.00;22.47;;;;;;;-0.84;100.00;99334.75;5096416;28;20497;-66
2022/03/09 00:53:09;;;;;;;158.50;23.03;;;;;;;-0.83;100.00;99336.38;5093817;28;20456;-58
2022/03/09 00:55:36;;;;;;;56.70;19.97;;;;;;;-0.87;100.00;99329.78;5095347;28;20496;-66
2022/03/09 00:58:04;;;;;;;66.00;20.07;;;;;;;-0.85;100.00;99334.75;5094791;28;20991;-58
2022/03/09 01:00:31;;;;;;;47.53;19.07;;;;;;;-0.86;100.00;99335.63;5094498;28;20476;-66
2022/03/09 01:02:59;;;;;;;44.47;18.47;;;;;;;-0.95;100.00;99337.47;5095621;28;20210;-66
2022/03/09 01:05:26;;;;;;;49.47;20.43;;;;;;;-0.93;100.00;99344.97;5094498;28;20475;-58
2022/03/09 01:07:53;;;;;;;47.90;18.70;;;;;;;-0.90;100.00;99339.91;5096147;28;20458;-65
2022/03/09 01:10:20;;;;;;;135.97;23.90;;;;;;;-1.01;100.00;99326.75;5096141;28;20503;-58
2022/03/09 01:12:47;;;;;;;129.57;23.23;;;;;;;-1.17;100.00;99336.25;5094413;28;20451;-59
2022/03/09 01:15:15;;;;;;;130.93;22.57;;;;;;;-1.19;100.00;99336.31;5095418;28;20455;-67
2022/03/09 01:17:42;;;;;;;103.07;21.50;;;;;;;-1.21;100.00;99335.50;5094543;28;20451;-66
2022/03/09 01:20:11;;;;;;;68.77;20.30;;;;;;;-1.31;100.00;99334.06;5095543;28;20502;-58
2022/03/09 01:22:38;;;;;;;71.17;20.23;;;;;;;-1.43;100.00;99334.28;5094116;28;20205;-67
2022/03/09 01:25:06;;;;;;;53.33;19.23;;;;;;;-1.57;100.00;99343.75;5096451;28;20553;-66
2022/03/09 01:27:33;;;;;;;61.20;21.67;;;;;;;-1.55;100.00;99340.34;5095019;28;20459;-58
2022/03/09 01:30:00;;;;;;;54.50;20.70;;;;;;;-1.62;100.00;99334.63;5096317;28;20483;-60
2022/03/09 01:32:27;;;;;;;78.33;20.07;;;;;;;-1.62;100.00;99334.63;5093970;28;20448;-65
2022/03/09 01:34:54;;;;;;;54.03;19.73;;;;;;;-1.69;100.00;99338.09;5095345;28;20464;-57
2022/03/09 01:37:22;;;;;;;49.80;19.17;;;;;;;-1.67;100.00;99323.88;5095950;28;20517;-66
2022/03/09 01:39:50;;;;;;;44.60;19.23;;;;;;;-1.68;100.00;99332.25;5097170;28;20495;-66
2022/03/09 01:42:18;;;;;;;49.77;20.53;;;;;;;-1.70;100.00;99331.44;5095564;28;20773;-57
2022/03/09 01:44:44;;;;;;;56.07;20.60;;;;;;;-1.75;100.00;99333.19;5097352;28;20550;-65
2022/03/09 01:47:12;;;;;;;50.33;19.00;;;;;;;-1.70;100.00;99328.94;5096212;28;20968;-58
2022/03/09 01:49:40;;;;;;;51.30;19.73;;;;;;;-1.63;100.00;99333.00;5094317;28;20471;-58
2022/03/09 01:52:08;;;;;;;45.83;19.77;;;;;;;-1.60;100.00;99325.41;5094152;28;20484;-57
2022/03/09 01:54:36;;;;;;;56.90;20.03;;;;;;;-1.49;100.00;99334.41;5097413;28;20452;-66
2022/03/09 01:57:05;;;;;;;52.53;18.97;;;;;;;-1.46;100.00;99326.81;5093247;28;20965;-66
2022/03/09 01:59:32;;;;;;;57.97;19.77;;;;;;;-1.43;100.00;99329.25;5092265;28;20452;-57
2022/03/09 02:01:59;;;;;;;68.10;20.60;;;;;;;-1.44;100.00;99333.44;5093062;28;20460;-66
2022/03/09 02:04:28;;;;;;;55.73;20.30;;;;;;;-1.40;100.00;99321.66;5093176;28;20452;-58
2022/03/09 02:06:54;;;;;;;50.47;19.57;;;;;;;-1.40;100.00;99330.06;5094076;28;20935;-57
2022/03/09 02:12:09;;;;;;;53.27;20.13;;;;;;;-1.25;100.00;99333.06;5093621;28;21093;-58
2022/03/09 02:14:37;;;;;;;55.97;20.43;;;;;;;-1.18;100.00;99330.44;5091638;28;20831;-57
2022/03/09 02:17:08;;;;;;;55.93;21.97;;;;;;;-1.12;100.00;99333.66;5090809;28;20987;-66
2022/03/09 02:19:35;;;;;;;55.83;21.83;;;;;;;-1.15;100.00;99330.34;5091396;28;20482;-66
2022/03/09 02:22:06;;;;;;;53.50;21.83;;;;;;;-1.16;100.00;99323.69;5092236;28;20991;-57
2022/03/09 02:24:35;;;;;;;66.10;21.00;;;;;;;-1.07;100.00;99321.88;5092209;28;20452;-66
2022/03/09 02:27:02;;;;;;;52.17;21.27;;;;;;;-1.09;100.00;99328.59;5093302;28;20451;-66
2022/03/09 02:29:28;;;;;;;54.67;21.20;;;;;;;-1.07;100.00;99321.88;5091226;28;20205;-66
2022/03/09 02:31:55;;;;;;;51.30;21.27;;;;;;;-1.07;100.00;99325.19;5093313;28;20873;-58
2022/03/09 02:34:22;;;;;;;55.13;20.97;;;;;;;-1.06;100.00;99324.31;5095855;28;20478;-66
2022/03/09 02:36:49;;;;;;;52.70;20.97;;;;;;;-1.07;100.00;99319.34;5096063;28;20908;-58
2022/03/09 02:39:16;;;;;;;54.30;21.90;;;;;;;-1.00;100.00;99315.84;5096328;28;20532;-66
2022/03/09 02:41:45;;;;;;;56.23;21.50;;;;;;;-1.05;100.00;99320.13;5094362;28;20218;-57
2022/03/09 02:44:12;;;;;;;53.47;21.93;;;;;;;-1.08;100.00;99321.00;5093050;28;20447;-59
2022/03/09 02:46:39;;;;;;;56.10;21.27;;;;;;;-1.20;100.00;99324.59;5092600;28;20471;-58
2022/03/09 02:49:06;;;;;;;51.57;20.47;;;;;;;-1.15;100.00;99319.50;5093650;28;20452;-57
2022/03/09 02:51:33;;;;;;;54.77;20.47;;;;;;;-1.16;100.00;99323.69;5092877;28;20495;-66
2022/03/09 02:54:00;;;;;;;51.47;21.20;;;;;;;-1.14;100.00;99332.00;5092972;28;20451;-66
2022/03/09 02:56:27;;;;;;;56.73;21.70;;;;;;;-1.12;100.00;99323.63;5093603;28;20468;-58
2022/03/09 02:58:55;;;;;;;53.83;21.20;;;;;;;-1.09;100.00;99329.41;5094278;28;20444;-58
2022/03/09 03:01:22;;;;;;;52.23;22.20;;;;;;;-1.14;100.00;99332.00;5094027;28;20475;-65
2022/03/09 03:03:49;;;;;;;53.33;21.33;;;;;;;-1.16;100.00;99333.75;5094941;28;20206;-65
2022/03/09 03:06:16;;;;;;;57.60;21.90;;;;;;;-1.15;100.00;99329.53;5094174;28;20484;-57
2022/03/09 03:08:43;;;;;;;60.23;22.37;;;;;;;-1.25;100.00;99328.91;5094916;28;20448;-66
2022/03/09 03:11:11;;;;;;;55.20;21.37;;;;;;;-1.25;100.00;99323.91;5095798;28;20503;-66
2022/03/09 03:13:40;;;;;;;52.20;21.13;;;;;;;-1.16;100.00;99331.22;5093635;28;20440;-58
2022/03/09 03:16:10;;;;;;;55.67;21.87;;;;;;;-1.23;100.00;99327.19;5095931;28;20490;-57
2022/03/09 03:18:38;;;;;;;61.43;23.03;;;;;;;-1.22;100.00;99331.34;5096816;28;20981;-58
2022/03/09 03:21:05;;;;;;;56.17;21.27;;;;;;;-1.25;100.00;99333.94;5099063;28;20480;-66
2022/03/09 03:23:33;;;;;;;59.77;23.30;;;;;;;-1.22;100.00;99328.84;5097521;28;20517;-57
2022/03/09 03:26:02;;;;;;;54.37;21.37;;;;;;;-1.28;100.00;99334.00;5097778;28;20467;-66
2022/03/09 03:28:29;;;;;;;57.53;22.97;;;;;;;-1.30;100.00;99330.69;5098357;28;20448;-66
2022/03/09 03:30:57;;;;;;;62.27;23.37;;;;;;;-1.32;100.00;99334.06;5097348;28;20494;-66
2022/03/09 03:33:25;;;;;;;54.33;22.67;;;;;;;-1.30;100.00;99325.66;5098192;28;20454;-65
2022/03/09 03:35:53;;;;;;;59.00;23.40;;;;;;;-1.28;100.00;99323.97;5098605;28;20480;-66
2022/03/09 03:38:20;;;;;;;57.13;23.17;;;;;;;-1.32;100.00;99322.34;5099293;28;20447;-57
2022/03/09 03:40:47;;;;;;;54.83;22.20;;;;;;;-1.30;100.00;99325.66;5097474;28;20476;-66
2022/03/09 03:43:14;;;;;;;60.97;22.90;;;;;;;-1.30;100.00;99324.84;5096753;28;20447;-58
2022/03/09 03:45:42;;;;;;;56.93;21.63;;;;;;;-1.40;100.00;99320.03;5095784;28;20477;-58
2022/03/09 03:48:09;;;;;;;59.73;22.27;;;;;;;-1.34;100.00;99316.53;5095951;28;20447;-65
2022/03/09 03:50:37;;;;;;;56.87;22.73;;;;;;;-1.31;100.00;99324.03;5095630;28;20479;-66
2022/03/09 03:53:05;;;;;;;57.57;22.80;;;;;;;-1.34;100.00;99315.72;5095648;28;20455;-66
2022/03/09 03:55:32;;;;;;;59.57;23.63;;;;;;;-1.36;100.00;99318.25;5095256;28;20471;-57
2022/03/09 03:57:59;;;;;;;53.03;21.00;;;;;;;-1.39;100.00;99315.81;5096249;28;20478;-58
2022/03/09 04:00:26;;;;;;;58.53;22.63;;;;;;;-1.35;100.00;99312.38;5096442;28;20480;-57
2022/03/09 04:02:53;;;;;;;58.70;22.20;;;;;;;-1.30;100.00;99320.66;5095117;28;20448;-66
2022/03/09 04:05:20;;;;;;;57.23;22.67;;;;;;;-1.33;100.00;99315.69;5097252;28;20890;-57
2022/03/09 04:07:49;;;;;;;60.87;23.23;;;;;;;-1.29;100.00;99312.25;5097166;28;20531;-58
2022/03/09 04:10:15;;;;;;;56.17;22.33;;;;;;;-1.28;100.00;99313.94;5094872;28;20480;-66
2022/03/09 04:12:42;;;;;;;53.47;21.53;;;;;;;-1.28;100.00;99313.06;5093961;28;20845;-58
2022/03/09 04:15:10;;;;;;;49.03;20.43;;;;;;;-1.29;100.00;99309.75;5095710;28;20475;-58
2022/03/09 04:17:42;;;;;;;52.10;22.03;;;;;;;-1.28;100.00;99318.09;5095171;28;20544;-66
2022/03/09 04:20:10;;;;;;;54.27;21.43;;;;;;;-1.33;100.00;99315.69;5096445;28;20484;-66
2022/03/09 04:22:37;;;;;;;54.23;22.00;;;;;;;-1.34;100.00;99314.03;5093716;28;20455;-58
2022/03/09 04:25:08;;;;;;;57.17;22.30;;;;;;;-1.35;100.00;99309.06;5094960;28;20491;-57
2022/03/09 04:27:35;;;;;;;53.83;22.13;;;;;;;-1.36;100.00;99303.22;5093915;28;20444;-57
2022/03/09 04:30:02;;;;;;;51.50;21.83;;;;;;;-1.35;100.00;99307.38;5098870;28;20470;-66
2022/03/09 04:32:29;;;;;;;50.07;20.77;;;;;;;-1.36;100.00;99305.72;5096329;28;20487;-66
2022/03/09 04:34:56;;;;;;;52.60;22.27;;;;;;;-1.40;100.00;99312.50;5097000;28;20563;-57
2022/03/09 04:37:23;;;;;;;50.50;19.60;;;;;;;-1.44;100.00;99307.56;5095837;28;20444;-58
2022/03/09 04:39:50;;;;;;;52.90;21.67;;;;;;;-1.44;100.00;99310.06;5096167;28;20480;-66
2022/03/09 04:42:18;;;;;;;50.70;21.73;;;;;;;-1.50;100.00;99311.00;5095229;28;20456;-66
2022/03/09 04:44:45;;;;;;;52.63;20.97;;;;;;;-1.48;100.00;99309.31;5097524;28;20495;-67
2022/03/09 04:47:12;;;;;;;52.83;21.47;;;;;;;-1.49;100.00;99310.13;5094612;28;20483;-66
2022/03/09 04:49:40;;;;;;;50.10;20.33;;;;;;;-1.49;100.00;99314.34;5098379;28;20459;-66
2022/03/09 04:52:08;;;;;;;53.70;21.60;;;;;;;-1.53;100.00;99311.06;5095454;28;21067;-58
2022/03/09 04:54:35;;;;;;;47.13;19.83;;;;;;;-1.52;100.00;99309.38;5095555;28;20463;-65
2022/03/09 04:57:02;;;;;;;44.50;19.63;;;;;;;-1.65;100.00;99304.63;5094821;28;20577;-58
2022/03/09 04:59:30;;;;;;;43.67;20.43;;;;;;;-1.59;100.00;99306.19;5095659;28;20456;-66
2022/03/09 05:01:58;;;;;;;47.50;19.93;;;;;;;-1.61;100.00;99311.22;5096376;28;20442;-66
2022/03/09 05:04:25;;;;;;;49.10;20.03;;;;;;;-1.59;100.00;99303.66;5097118;28;20484;-67
2022/03/09 05:06:52;;;;;;;46.13;18.83;;;;;;;-1.60;100.00;99310.38;5095385;28;20483;-58
2022/03/09 05:09:19;;;;;;;49.90;20.40;;;;;;;-1.57;100.00;99313.66;5095031;28;20460;-58
2022/03/09 05:11:46;;;;;;;44.93;19.90;;;;;;;-1.55;100.00;99309.44;5094454;28;20502;-58
2022/03/09 05:14:14;;;;;;;50.57;21.40;;;;;;;-1.50;100.00;99317.72;5095688;28;20456;-66
2022/03/09 05:16:43;;;;;;;48.10;21.13;;;;;;;-1.51;100.00;99316.03;5095610;28;20479;-66
2022/03/09 05:19:09;;;;;;;49.13;20.93;;;;;;;-1.47;100.00;99312.63;5094188;28;20455;-57
2022/03/09 05:21:37;;;;;;;51.03;20.97;;;;;;;-1.45;100.00;99325.97;5095949;28;20491;-57
2022/03/09 05:24:04;;;;;;;54.90;21.07;;;;;;;-1.46;100.00;99324.31;5096650;28;20448;-57
2022/03/09 05:26:31;;;;;;;53.27;21.50;;;;;;;-1.52;100.00;99325.25;5094375;28;20479;-66
2022/03/09 05:28:58;;;;;;;45.80;20.17;;;;;;;-1.52;100.00;99325.25;5095025;28;20447;-62
2022/03/09 05:31:25;;;;;;;47.57;20.00;;;;;;;-1.54;100.00;99326.13;5095384;28;20491;-58
2022/03/09 05:33:53;;;;;;;42.63;19.77;;;;;;;-1.41;100.00;99325.03;5095139;28;20464;-58
2022/03/09 05:36:20;;;;;;;50.70;20.27;;;;;;;-1.40;100.00;99322.53;5093046;28;20471;-57
2022/03/09 05:38:47;;;;;;;49.43;20.37;;;;;;;-1.26;100.00;99331.44;5096422;28;20531;-58
2022/03/09 05:41:14;;;;;;;51.63;20.93;;;;;;;-1.10;100.00;99331.97;5096718;28;20579;-59
2022/03/09 05:43:41;;;;;;;47.77;20.80;;;;;;;-1.00;100.00;99325.88;5098787;28;20444;-66
2022/03/09 05:46:11;;;;;;;52.97;22.77;;;;;;;-1.00;100.00;99333.41;5097392;28;20488;-66
2022/03/09 05:48:38;;;;;;;45.80;21.47;;;;;;;-0.89;100.00;99323.97;5095137;28;20505;-58
2022/03/09 05:51:07;;;;;;;53.10;22.33;;;;;;;-0.60;100.00;99322.50;5096227;28;20879;-66
2022/03/09 05:53:34;;;;;;;53.50;22.53;;;;;;;-0.28;100.00;99330.09;5095409;28;20491;-66
2022/03/09 05:56:01;;;;;;;54.90;23.47;;;;;;;-0.04;99.96;99330.34;5096234;28;20228;-57
2022/03/09 05:58:28;;;;;;;53.13;23.53;;;;;;;0.08;98.25;99337.56;5095006;28;20590;-66
2022/03/09 06:00:55;;;;;;;56.63;23.90;;;;;;;0.15;96.83;99346.63;5094968;28;20472;-66
2022/03/09 06:03:22;;;;;;;50.90;23.03;;;;;;;0.22;95.86;99340.56;5094302;28;20463;-66
2022/03/09 06:05:49;;;;;;;52.93;23.57;;;;;;;0.17;95.01;99344.06;5093950;28;20745;-66
2022/03/09 06:08:17;;;;;;;50.97;21.97;;;;;;;0.16;95.25;99342.41;5095996;28;20206;-65
2022/03/09 06:10:44;;;;;;;47.53;21.03;;;;;;;0.06;94.49;99344.34;5095112;28;20214;-58
2022/03/09 06:13:11;;;;;;;41.53;20.67;;;;;;;-0.01;95.18;99342.84;5094506;28;20240;-58
2022/03/09 06:15:40;;;;;;;44.83;20.40;;;;;;;0.01;95.27;99347.84;5094158;28;20289;-58
2022/03/09 06:18:07;;;;;;;43.00;20.60;;;;;;;0.13;95.58;99350.84;5093204;28;21009;-66
2022/03/09 06:20:35;;;;;;;47.07;21.90;;;;;;;0.52;94.70;99343.13;5094366;28;20230;-59
2022/03/09 06:23:03;;;;;;;47.60;20.50;;;;;;;1.01;93.49;99338.41;5093513;28;20202;-66
2022/03/09 06:25:34;;;;;;;48.40;22.07;;;;;;;1.49;91.56;99341.16;5093628;28;20222;-58
2022/03/09 06:28:02;;;;;;;44.73;21.10;;;;;;;1.83;89.88;99350.16;5093360;28;20206;-66
2022/03/09 06:30:29;;;;;;;48.23;22.07;;;;;;;2.28;88.27;99349.50;5093269;28;20726;-58
2022/03/09 06:32:56;;;;;;;44.00;20.80;;;;;;;2.72;85.82;99354.69;5092270;28;20234;-68
2022/03/09 06:35:23;;;;;;;42.73;20.60;;;;;;;3.05;83.65;99356.88;5095401;28;20615;-58
2022/03/09 06:37:51;;;;;;;42.67;20.97;;;;;;;3.21;81.55;99350.38;5094951;28;20212;-66
2022/03/09 06:40:18;;;;;;;39.77;19.83;;;;;;;3.33;82.71;99347.38;5093068;28;20206;-67
2022/03/09 06:42:47;;;;;;;42.07;19.20;;;;;;;3.75;81.82;99354.16;5092179;28;20284;-66
2022/03/09 06:45:14;;;;;;;38.90;19.33;;;;;;;4.11;80.81;99356.06;5093311;28;20218;-59
2022/03/09 06:47:41;;;;;;;40.33;20.43;;;;;;;4.08;79.17;99351.16;5094352;28;20206;-58
2022/03/09 06:50:09;;;;;;;39.93;19.50;;;;;;;3.86;78.93;99357.06;5093845;28;20225;-63
2022/03/09 06:52:37;;;;;;;36.70;19.43;;;;;;;3.97;79.14;99360.88;5098131;28;20237;-66
2022/03/09 06:55:07;;;;;;;37.87;19.77;;;;;;;3.67;79.12;99366.28;5098182;28;20244;-57
2022/03/09 06:57:34;;;;;;;39.97;21.00;;;;;;;3.66;80.39;99366.34;5097017;28;20947;-66
2022/03/09 07:00:04;;;;;;;39.80;20.53;;;;;;;3.80;80.39;99362.38;5096477;28;20232;-57
2022/03/09 07:02:31;;;;;;;44.03;21.53;;;;;;;4.21;79.13;99364.09;5096594;28;20217;-58
2022/03/09 07:04:58;;;;;;;41.73;20.80;;;;;;;4.31;77.36;99361.13;5097532;28;20225;-66
2022/03/09 07:07:26;;;;;;;39.90;20.10;;;;;;;4.56;77.90;99357.53;5098402;28;20668;-66
2022/03/09 07:09:53;;;;;;;40.20;19.87;;;;;;;4.61;75.95;99354.81;5097058;28;20217;-66
2022/03/09 07:12:20;;;;;;;40.10;21.23;;;;;;;4.92;75.86;99359.38;5097562;28;20229;-66
2022/03/09 07:14:46;;;;;;;41.27;20.93;;;;;;;5.03;75.39;99367.28;5096742;28;20193;-66
2022/03/09 07:17:15;;;;;;;36.57;19.87;;;;;;;4.94;73.53;99362.63;5096791;28;20589;-58
2022/03/09 07:19:42;;;;;;;40.77;20.57;;;;;;;4.06;75.23;99358.78;5096028;28;20213;-57
2022/03/09 07:22:09;;;;;;;46.23;22.27;;;;;;;4.00;77.06;99368.34;5096454;28;20214;-57
2022/03/09 07:24:36;;;;;;;42.40;21.73;;;;;;;3.94;77.15;99363.53;5095819;28;20304;-66
2022/03/09 07:27:04;;;;;;;40.63;21.10;;;;;;;3.53;76.30;99359.25;5096973;28;20208;-57
2022/03/09 07:29:31;;;;;;;38.67;20.03;;;;;;;2.75;78.59;99364.69;5096748;28;20667;-58
2022/03/09 07:31:58;;;;;;;47.43;21.47;;;;;;;2.46;81.70;99358.97;5095903;28;20202;-58
2022/03/09 07:34:27;;;;;;;40.43;20.20;;;;;;;2.36;82.12;99360.16;5097299;28;20220;-66
2022/03/09 07:36:57;;;;;;;39.90;19.63;;;;;;;2.17;84.00;99356.59;5096790;28;20289;-65
2022/03/09 07:39:26;;;;;;;40.47;20.37;;;;;;;2.13;84.96;99360.94;5096087;28;20639;-66
2022/03/09 07:41:54;;;;;;;42.20;20.93;;;;;;;2.27;85.19;99363.00;5095419;28;20293;-58
2022/03/09 07:44:22;;;;;;;42.73;21.73;;;;;;;2.59;84.15;99366.94;5097465;28;20201;-66
2022/03/09 07:46:49;;;;;;;41.70;21.23;;;;;;;2.57;84.74;99367.88;5095844;28;20222;-66
2022/03/09 07:49:16;;;;;;;42.43;20.27;;;;;;;2.63;84.53;99365.94;5095941;28;20198;-57
2022/03/09 07:51:45;;;;;;;43.33;21.40;;;;;;;2.63;84.04;99371.00;5096593;28;20416;-67
2022/03/09 07:54:13;;;;;;;41.40;20.43;;;;;;;2.29;85.12;99371.31;5095757;28;20240;-57
2022/03/09 07:56:40;;;;;;;44.23;20.83;;;;;;;1.94;86.80;99368.28;5097578;28;20230;-66
2022/03/09 07:59:08;;;;;;;42.33;20.40;;;;;;;1.77;88.92;99368.81;5096635;28;20689;-58
2022/03/09 08:01:36;;;;;;;45.93;21.83;;;;;;;1.74;90.11;99368.09;5098440;28;20667;-57
2022/03/09 08:04:03;;;;;;;49.73;22.43;;;;;;;1.62;89.86;99373.53;5095795;28;20205;-66
2022/03/09 08:06:31;;;;;;;52.47;23.50;;;;;;;1.29;91.74;99371.16;5097593;28;20228;-65
2022/03/09 08:09:00;;;;;;;44.40;20.67;;;;;;;1.50;92.70;99367.16;5097704;28;20197;-65
2022/03/09 08:11:27;;;;;;;46.07;19.63;;;;;;;1.73;91.99;99369.78;5095599;28;20233;-57
2022/03/09 08:13:54;;;;;;;49.17;21.97;;;;;;;1.43;90.92;99368.22;5097498;28;20665;-65
2022/03/09 08:16:21;;;;;;;44.57;21.23;;;;;;;1.61;90.69;99365.13;5096491;28;20594;-58
2022/03/09 08:18:48;;;;;;;43.67;20.33;;;;;;;1.56;91.57;99367.78;5097682;28;20202;-66
2022/03/09 08:21:15;;;;;;;48.50;21.50;;;;;;;1.67;91.69;99366.66;5097065;28;20232;-57
2022/03/09 08:23:42;;;;;;;43.73;21.03;;;;;;;1.81;91.90;99369.56;5096523;28;20213;-65
2022/03/09 08:26:10;;;;;;;45.53;21.37;;;;;;;2.10;91.74;99371.13;5095822;28;20229;-58
2022/03/09 08:28:37;;;;;;;45.23;21.90;;;;;;;2.04;91.77;99369.63;5095601;28;20214;-58
2022/03/09 08:31:04;;;;;;;44.00;20.80;;;;;;;2.01;91.47;99371.44;5095688;28;20221;-66
2022/03/09 08:33:31;;;;;;;47.03;22.13;;;;;;;2.46;91.17;99379.16;5096552;28;20230;-57
2022/03/09 08:35:58;;;;;;;44.87;22.43;;;;;;;2.84;89.39;99379.50;5095753;28;20222;-57
2022/03/09 08:38:25;;;;;;;45.17;21.83;;;;;;;2.94;87.07;99380.81;5095412;28;20202;-66
2022/03/09 08:40:53;;;;;;;48.43;23.73;;;;;;;3.02;86.99;99379.72;5095478;28;20694;-66
2022/03/09 08:43:22;;;;;;;41.50;20.40;;;;;;;3.23;85.39;99378.94;5095635;28;20606;-66
2022/03/09 08:45:49;;;;;;;41.03;20.03;;;;;;;3.21;84.73;99379.88;5096302;28;20723;-63
2022/03/09 08:48:16;;;;;;;40.03;20.87;;;;;;;3.24;84.92;99384.81;5094251;28;20206;-57
2022/03/09 08:50:43;;;;;;;42.40;21.13;;;;;;;3.12;86.38;99383.56;5096217;28;20233;-58
2022/03/09 08:53:10;;;;;;;45.73;21.37;;;;;;;3.22;85.70;99381.50;5094617;28;20919;-57
2022/03/09 08:55:37;;;;;;;43.07;21.30;;;;;;;3.42;85.39;99373.19;5094139;28;20226;-66
2022/03/09 08:58:04;;;;;;;40.90;20.13;;;;;;;3.60;85.53;99375.81;5094241;28;20214;-66
2022/03/09 09:00:33;;;;;;;48.87;22.57;;;;;;;3.77;83.87;99377.66;5094938;28;20249;-66
2022/03/09 09:03:00;;;;;;;43.77;20.43;;;;;;;3.52;82.61;99374.44;5094947;28;20198;-57
2022/03/09 09:05:27;;;;;;;43.57;22.03;;;;;;;3.49;83.94;99377.09;5092942;28;20238;-57
2022/03/09 09:07:54;;;;;;;40.47;20.80;;;;;;;3.75;84.08;99379.47;5093335;28;20198;-66
2022/03/09 09:10:21;;;;;;;41.87;20.80;;;;;;;3.80;81.33;99381.78;5095405;28;20768;-57
2022/03/09 09:12:50;;;;;;;39.47;19.57;;;;;;;3.99;81.13;99376.81;5094379;28;20774;-64
2022/03/09 09:15:17;;;;;;;38.83;20.30;;;;;;;3.90;81.39;99382.22;5096654;28;20283;-66
2022/03/09 09:17:45;;;;;;;38.17;17.43;;;;;;;4.29;80.63;99387.38;5098785;28;20255;-66
2022/03/09 09:20:13;;;;;;;37.50;19.47;;;;;;;4.63;79.83;99384.25;5096708;28;20707;-57
2022/03/09 09:22:43;;;;;;;39.40;20.40;;;;;;;4.94;77.71;99386.25;5094700;28;20686;-57
2022/03/09 09:25:11;;;;;;;41.27;19.93;;;;;;;4.80;77.67;99387.75;5094086;28;20226;-57
2022/03/09 09:27:38;;;;;;;39.70;20.40;;;;;;;4.96;76.79;99396.34;5096301;28;20680;-57
2022/03/09 09:30:06;;;;;;;38.93;20.37;;;;;;;5.67;76.36;99389.69;5096333;28;20272;-57
2022/03/09 09:32:33;;;;;;;36.17;18.73;;;;;;;5.94;72.97;99391.84;5095107;28;20198;-58
2022/03/09 09:35:02;;;;;;;39.03;20.20;;;;;;;6.50;72.01;99398.34;5096458;28;20229;-65
2022/03/09 09:37:29;;;;;;;32.07;17.63;;;;;;;6.82;69.88;99395.91;5095702;28;20194;-66
2022/03/09 09:39:56;;;;;;;37.33;19.00;;;;;;;6.85;66.52;99390.66;5095242;28;20225;-67
2022/03/09 09:42:30;;;;;;;34.30;19.03;;;;;;;7.12;65.01;99392.66;5095239;28;20209;-66
2022/03/09 09:45:00;;;;;;;38.17;20.10;;;;;;;7.24;66.66;99386.91;5095059;28;20275;-67
2022/03/09 09:47:28;;;;;;;36.77;19.27;;;;;;;6.87;64.83;99393.13;5096621;28;20194;-66
2022/03/09 09:49:55;;;;;;;39.23;20.23;;;;;;;6.62;67.86;99393.56;5094528;28;20589;-67
2022/03/09 09:52:26;;;;;;;36.47;19.00;;;;;;;5.66;68.82;99385.50;5095793;28;20243;-58
2022/03/09 09:54:57;;;;;;;37.70;20.10;;;;;;;4.87;71.81;99387.41;5094434;28;20629;-66
2022/03/09 09:57:25;;;;;;;37.73;19.77;;;;;;;4.40;74.12;99389.47;5093481;28;20198;-57
2022/03/09 09:59:52;;;;;;;38.50;20.43;;;;;;;3.97;77.07;99388.72;5094683;28;20237;-58
2022/03/09 10:02:19;;;;;;;43.37;22.13;;;;;;;3.88;79.56;99389.09;5095212;28;20220;-66
2022/03/09 10:04:47;;;;;;;42.57;22.33;;;;;;;3.65;80.21;99387.47;5094038;28;20231;-66
2022/03/09 10:07:15;;;;;;;45.43;21.57;;;;;;;3.88;81.57;99389.09;5094256;28;20206;-67
2022/03/09 10:09:44;;;;;;;44.40;21.50;;;;;;;3.91;79.27;99388.97;5094435;28;20682;-58
2022/03/09 10:12:15;;;;;;;38.60;19.93;;;;;;;3.90;79.81;99387.28;5096154;28;20198;-67
2022/03/09 10:14:44;;;;;;;42.47;21.20;;;;;;;3.84;80.77;99383.31;5095682;28;20953;-58
2022/03/09 10:17:12;;;;;;;45.53;23.43;;;;;;;3.95;80.86;99380.34;5094185;28;20201;-66
2022/03/09 10:19:43;;;;;;;42.87;20.97;;;;;;;4.14;80.54;99382.97;5093327;28;20617;-57
2022/03/09 10:22:29;;;;;;;43.43;22.37;;;;;;;4.27;80.89;99392.50;5094086;28;20210;-58
2022/03/09 10:25:00;;;;;;;45.40;22.07;;;;;;;4.30;80.19;99387.34;5095809;28;20600;-66
2022/03/09 10:27:43;;;;;;;50.73;25.93;;;;;;;4.39;79.85;99382.75;5094710;28;20198;-58
2022/03/09 10:30:13;;;;;;;44.63;22.40;;;;;;;4.32;78.79;99384.72;5094806;28;20214;-65
2022/03/09 10:32:49;;;;;;;39.93;21.07;;;;;;;4.49;78.51;99376.44;5094903;28;20202;-66
2022/03/09 10:35:18;;;;;;;38.37;20.43;;;;;;;4.66;78.01;99389.19;5093608;28;20226;-58
2022/03/09 10:37:47;;;;;;;39.63;20.90;;;;;;;4.58;76.40;99381.09;5095361;28;20194;-58
2022/03/09 10:40:19;;;;;;;43.03;20.53;;;;;;;4.81;75.18;99372.50;5094248;28;20229;-65
2022/03/09 10:42:47;;;;;;;42.87;20.90;;;;;;;5.43;76.63;99375.59;5094911;28;20202;-58
2022/03/09 10:45:17;;;;;;;39.23;20.20;;;;;;;5.93;73.92;99369.03;5094978;28;20226;-66
2022/03/09 10:47:46;;;;;;;44.07;21.00;;;;;;;5.89;73.63;99378.50;5096501;28;20210;-66
2022/03/09 10:50:18;;;;;;;42.37;21.13;;;;;;;5.98;73.73;99378.09;5095011;28;20604;-60
2022/03/09 10:52:49;;;;;;;40.80;22.03;;;;;;;6.34;73.76;99375.47;5094314;28;20206;-58
2022/03/09 10:55:29;;;;;;;42.60;22.10;;;;;;;6.34;73.03;99372.94;5093770;28;20232;-66
2022/03/09 10:58:12;;;;;;;41.13;21.03;;;;;;;6.35;72.28;99372.03;5094063;28;20194;-58
2022/03/09 11:00:41;;;;;;;42.67;21.50;;;;;;;6.62;71.27;99375.78;5094359;28;20228;-66
2022/03/09 11:03:11;;;;;;;43.17;22.33;;;;;;;5.81;71.52;99367.91;5094279;28;20217;-58
2022/03/09 11:05:48;;;;;;;45.33;22.53;;;;;;;5.66;75.83;99366.91;5095242;28;20305;-66
2022/03/09 11:08:16;;;;;;;46.50;23.27;;;;;;;5.66;73.72;99372.81;5093231;28;20201;-67
2022/03/09 11:10:46;;;;;;;46.20;22.93;;;;;;;5.99;73.47;99364.53;5094567;28;20226;-66
2022/03/09 11:13:14;;;;;;;41.17;20.43;;;;;;;5.87;71.27;99360.81;5094619;28;20237;-57
2022/03/09 11:15:43;;;;;;;40.53;20.83;;;;;;;6.38;71.28;99371.03;5093749;28;20240;-66
2022/03/09 11:18:12;;;;;;;41.87;20.73;;;;;;;6.31;68.13;99373.09;5092224;28;20194;-57
2022/03/09 11:20:40;;;;;;;45.63;22.53;;;;;;;6.17;68.65;99372.09;5092212;28;20261;-63
2022/03/09 11:23:07;;;;;;;43.07;21.33;;;;;;;6.27;68.72;99368.22;5093653;28;20218;-65